createdAt,value
2022-10-17T00:01:11.283Z,99.90
2022-10-17T00:04:38.029Z,99.90
2022-10-17T00:08:15.873Z,99.90
2022-10-17T00:12:24.332Z,99.90
2022-10-17T00:16:17.896Z,99.90
2022-10-17T00:23:37.262Z,99.90
2022-10-17T00:28:01.448Z,99.90
2022-10-17T00:31:26.558Z,99.90
2022-10-17T00:34:48.930Z,99.90
2022-10-17T00:38:11.040Z,99.90
2022-10-17T00:41:34.761Z,99.90
2022-10-17T00:45:23.700Z,99.90
2022-10-17T00:48:46.269Z,99.90
2022-10-17T00:52:29.763Z,99.90
2022-10-17T00:55:54.157Z,99.90
2022-10-17T00:59:18.414Z,99.90
2022-10-17T01:02:40.428Z,99.90
2022-10-17T01:06:02.347Z,99.90
2022-10-17T01:09:25.420Z,99.90
2022-10-17T01:13:25.743Z,99.90
2022-10-17T01:17:05.744Z,99.90
2022-10-17T01:20:52.130Z,99.90
2022-10-17T01:24:42.258Z,99.90
2022-10-17T01:28:07.243Z,99.90
2022-10-17T01:31:40.471Z,99.90
2022-10-17T01:35:16.767Z,99.90
2022-10-17T01:38:47.345Z,99.90
2022-10-17T01:42:37.645Z,99.90
2022-10-17T01:46:06.770Z,99.90
2022-10-17T01:49:31.597Z,99.90
2022-10-17T01:52:58.023Z,99.90
2022-10-17T01:56:25.191Z,99.90
2022-10-17T01:59:51.529Z,99.90
2022-10-17T02:03:20.689Z,99.90
2022-10-17T02:06:42.701Z,99.90
2022-10-17T02:10:15.402Z,99.90
2022-10-17T02:13:37.242Z,99.90
2022-10-17T02:17:04.957Z,99.90
2022-10-17T02:20:56.988Z,99.90
2022-10-17T02:24:23.461Z,99.90
2022-10-17T02:28:17.239Z,99.90
2022-10-17T02:31:44.330Z,99.90
2022-10-17T02:35:09.565Z,99.90
2022-10-17T02:38:34.450Z,99.90
2022-10-17T02:42:01.824Z,99.90
2022-10-17T02:45:26.438Z,99.90
2022-10-17T02:49:07.153Z,99.90
2022-10-17T02:53:07.543Z,99.90
2022-10-17T02:56:35.042Z,99.90
2022-10-17T03:00:00.078Z,99.90
2022-10-17T03:03:27.417Z,99.90
2022-10-17T03:06:49.777Z,99.90
2022-10-17T03:10:13.601Z,99.90
2022-10-17T03:13:38.979Z,99.90
2022-10-17T03:17:02.369Z,99.90
2022-10-17T03:20:24.795Z,99.90
2022-10-17T03:23:47.266Z,99.90
2022-10-17T03:27:10.728Z,99.90
2022-10-17T03:30:33.720Z,99.90
2022-10-17T03:33:55.904Z,99.90
2022-10-17T03:37:18.062Z,99.90
2022-10-17T03:40:40.291Z,99.90
2022-10-17T03:44:02.425Z,99.90
2022-10-17T03:47:24.551Z,99.90
2022-10-17T03:50:46.726Z,99.90
2022-10-17T03:54:09.656Z,99.90
2022-10-17T03:57:32.354Z,99.90
2022-10-17T04:00:54.615Z,99.90
2022-10-17T04:04:16.825Z,99.90
2022-10-17T04:07:40.049Z,99.90
2022-10-17T04:11:07.141Z,99.90
2022-10-17T04:14:29.223Z,99.90
2022-10-17T04:17:52.445Z,99.90
2022-10-17T04:21:14.665Z,99.90
2022-10-17T04:24:36.891Z,99.90
2022-10-17T04:28:05.219Z,99.90
2022-10-17T04:31:27.426Z,99.90
2022-10-17T04:35:12.629Z,99.90
2022-10-17T04:38:39.141Z,99.90
2022-10-17T04:42:01.138Z,99.90
2022-10-17T04:45:23.453Z,99.90
2022-10-17T04:48:51.357Z,99.90
2022-10-17T04:52:13.546Z,99.90
2022-10-17T04:55:39.556Z,99.90
2022-10-17T04:59:01.808Z,99.90
2022-10-17T05:02:23.855Z,99.90
2022-10-17T07:58:31.486Z,95.60
2022-10-17T08:01:56.325Z,94.40
2022-10-17T08:05:20.109Z,92.10
2022-10-17T08:08:42.593Z,92.20
2022-10-17T08:12:04.727Z,91.90
2022-10-17T08:15:30.935Z,92.80
2022-10-17T08:18:54.159Z,91.10
2022-10-17T08:22:16.142Z,88.50
2022-10-17T08:25:39.844Z,88.80
2022-10-17T08:29:01.992Z,88.10
2022-10-17T08:32:26.623Z,90.00
2022-10-17T08:35:49.015Z,87.10
2022-10-17T08:39:13.196Z,90.00
2022-10-17T08:42:45.848Z,87.30
2022-10-17T08:46:09.448Z,88.20
2022-10-17T08:49:54.134Z,87.20
2022-10-17T08:53:20.150Z,84.50
2022-10-17T08:56:48.779Z,84.60
2022-10-17T09:00:19.375Z,88.10
2022-10-17T09:03:53.711Z,87.10
2022-10-17T09:07:50.127Z,85.40
2022-10-17T09:11:12.083Z,85.60
2022-10-17T09:14:55.423Z,87.80
2022-10-17T09:18:25.711Z,87.10
2022-10-17T09:22:00.050Z,86.20
2022-10-17T09:25:22.519Z,90.10
2022-10-17T09:28:46.541Z,89.70
2022-10-17T09:32:20.424Z,86.70
2022-10-17T09:35:43.890Z,86.70
2022-10-17T09:39:19.337Z,87.10
2022-10-17T09:42:41.472Z,87.40
2022-10-17T09:46:33.705Z,88.70
2022-10-17T09:49:56.070Z,88.40
2022-10-17T09:53:29.643Z,86.10
2022-10-17T09:57:09.210Z,85.20
2022-10-17T10:00:40.147Z,84.80
2022-10-17T10:04:16.635Z,83.90
2022-10-17T10:07:39.666Z,84.90
2022-10-17T10:11:13.391Z,84.60
2022-10-17T10:14:37.713Z,85.80
2022-10-17T10:17:59.674Z,86.60
2022-10-17T10:21:27.601Z,84.80
2022-10-17T10:25:08.995Z,84.40
2022-10-17T10:28:36.133Z,88.40
2022-10-17T10:32:23.389Z,85.50
2022-10-17T10:35:56.780Z,85.00
2022-10-17T10:39:31.239Z,87.50
2022-10-17T10:42:56.238Z,83.90
2022-10-17T10:46:28.054Z,82.90
2022-10-17T10:50:18.105Z,83.30
2022-10-17T10:53:56.664Z,86.70
2022-10-17T10:57:21.632Z,85.10
2022-10-17T11:00:43.870Z,86.80
2022-10-17T11:04:20.925Z,85.10
2022-10-17T11:07:50.515Z,87.50
2022-10-17T11:11:18.283Z,84.20
2022-10-17T11:14:49.664Z,85.90
2022-10-17T11:18:28.334Z,88.00
2022-10-17T11:22:22.916Z,88.00
2022-10-17T11:25:56.720Z,87.60
2022-10-17T11:29:23.845Z,87.00
2022-10-17T11:32:56.752Z,85.40
2022-10-17T11:36:22.579Z,85.50
2022-10-17T11:39:55.173Z,84.30
2022-10-17T11:43:33.887Z,85.30
2022-10-17T11:47:01.706Z,83.20
2022-10-17T11:54:53.739Z,86.60
2022-10-17T11:58:34.620Z,87.30
2022-10-17T12:02:14.706Z,83.80
2022-10-17T12:05:54.880Z,84.40
2022-10-17T12:09:32.454Z,82.10
2022-10-17T12:12:56.260Z,84.70
2022-10-17T12:16:20.907Z,82.60
2022-10-17T12:19:42.959Z,83.30
2022-10-17T12:23:11.551Z,83.50
2022-10-17T12:26:34.418Z,80.70
2022-10-17T12:30:04.305Z,82.70
2022-10-17T12:33:50.354Z,80.20
2022-10-17T12:37:51.633Z,80.20
2022-10-17T12:41:14.186Z,79.40
2022-10-17T12:44:38.029Z,78.90
2022-10-17T12:48:00.052Z,78.90
2022-10-17T12:51:40.496Z,80.50
2022-10-17T12:55:12.642Z,78.00
2022-10-17T12:58:36.544Z,80.00
2022-10-17T13:02:02.044Z,83.20
2022-10-17T13:05:31.700Z,80.90
2022-10-17T13:09:05.600Z,81.70
2022-10-17T13:12:28.561Z,81.80
2022-10-17T13:15:53.341Z,80.90
2022-10-17T13:19:23.337Z,79.80
2022-10-17T13:22:45.633Z,81.50
2022-10-17T13:26:24.007Z,79.20
2022-10-17T13:29:47.815Z,79.10
2022-10-17T13:33:33.287Z,78.50
2022-10-17T13:37:01.479Z,79.00
2022-10-17T13:40:50.057Z,80.70
2022-10-17T13:44:16.712Z,79.70
2022-10-17T13:47:42.401Z,81.40
2022-10-17T13:51:10.353Z,79.60
2022-10-17T13:54:51.332Z,77.30
2022-10-17T13:58:23.922Z,77.70
2022-10-17T14:01:50.279Z,77.70
2022-10-17T14:05:19.337Z,79.50
2022-10-17T14:09:02.531Z,79.80
2022-10-17T14:12:26.682Z,79.10
2022-10-17T14:16:00.984Z,79.00
2022-10-17T14:19:32.397Z,79.30
2022-10-17T14:23:21.064Z,80.50
2022-10-17T14:26:50.893Z,77.60
2022-10-17T14:30:55.849Z,77.80
2022-10-17T14:34:51.865Z,80.10
2022-10-17T14:38:16.357Z,80.80
2022-10-17T14:41:44.267Z,81.90
2022-10-17T14:45:12.378Z,82.60
2022-10-17T14:48:34.643Z,84.10
2022-10-17T14:52:17.988Z,84.20
2022-10-17T14:55:54.345Z,83.60
2022-10-17T14:59:35.456Z,83.30
2022-10-17T15:03:00.667Z,82.80
2022-10-17T15:06:32.795Z,83.40
2022-10-17T15:09:54.786Z,85.10
2022-10-17T15:13:39.903Z,86.50
2022-10-17T15:17:00.816Z,87.40
2022-10-17T15:20:27.055Z,88.10
2022-10-17T15:23:49.621Z,87.10
2022-10-17T15:27:19.568Z,88.70
2022-10-17T15:30:41.526Z,90.10
2022-10-17T15:34:03.524Z,90.00
2022-10-17T15:37:26.038Z,90.20
2022-10-17T15:40:50.952Z,91.30
2022-10-17T15:44:12.904Z,91.90
2022-10-17T15:47:34.945Z,92.40
2022-10-17T15:50:57.171Z,92.50
2022-10-17T15:54:19.140Z,92.70
2022-10-17T15:57:44.273Z,93.30
2022-10-17T16:01:07.406Z,93.70
2022-10-17T16:04:30.684Z,94.20
2022-10-17T16:07:53.891Z,94.50
2022-10-17T16:11:24.590Z,95.10
2022-10-17T16:14:46.751Z,94.80
2022-10-17T16:18:10.087Z,95.10
2022-10-17T16:21:38.052Z,96.00
2022-10-17T16:25:07.748Z,96.40
2022-10-17T16:28:30.040Z,96.80
2022-10-17T16:31:52.040Z,96.30
2022-10-17T16:35:23.235Z,96.70
2022-10-17T16:38:46.411Z,97.40
2022-10-17T16:42:08.524Z,98.30
2022-10-17T16:45:30.795Z,99.00
2022-10-17T16:48:53.223Z,99.60
2022-10-17T16:52:15.291Z,99.90
2022-10-17T16:55:38.026Z,99.90
2022-10-17T16:59:01.217Z,99.90
2022-10-17T17:02:23.216Z,99.90
2022-10-17T17:05:51.795Z,99.90
2022-10-17T17:09:14.727Z,99.90
2022-10-17T17:12:48.168Z,99.90
2022-10-17T17:16:23.697Z,99.90
2022-10-17T17:19:47.189Z,99.90
2022-10-17T17:23:13.707Z,99.90
2022-10-17T17:31:06.757Z,99.90
2022-10-17T17:34:41.567Z,99.90
2022-10-17T17:38:10.438Z,99.90
2022-10-17T17:41:35.974Z,99.90
2022-10-17T17:44:58.728Z,99.90
2022-10-17T17:48:20.980Z,99.90
2022-10-17T17:51:46.660Z,99.90
2022-10-17T17:55:10.022Z,99.90
2022-10-17T17:58:33.558Z,99.90
2022-10-17T18:01:55.647Z,99.90
2022-10-17T18:05:17.829Z,99.90
2022-10-17T18:08:39.851Z,99.90
2022-10-17T18:12:01.963Z,99.90
2022-10-17T18:15:23.990Z,99.90
2022-10-17T18:18:46.206Z,99.90
2022-10-17T18:22:08.193Z,99.90
2022-10-17T18:25:30.153Z,99.90
2022-10-17T18:28:52.369Z,99.90
2022-10-17T18:32:15.711Z,99.90
2022-10-17T18:35:37.749Z,99.90
2022-10-17T18:39:01.196Z,99.90
2022-10-17T18:42:23.699Z,99.90
2022-10-17T18:45:45.632Z,99.90
2022-10-17T18:49:10.200Z,99.90
2022-10-17T18:52:32.192Z,99.90
2022-10-17T18:55:55.968Z,99.90
2022-10-17T18:59:19.289Z,99.90
2022-10-17T19:02:41.301Z,99.90
2022-10-17T19:06:07.439Z,99.90
2022-10-17T19:09:29.568Z,99.90
2022-10-17T19:12:51.561Z,99.90
2022-10-17T19:16:17.351Z,99.90
2022-10-17T19:19:43.157Z,99.90
2022-10-17T19:23:05.385Z,99.90
2022-10-17T19:26:29.918Z,99.90
2022-10-17T19:29:51.903Z,99.90
2022-10-17T19:33:14.064Z,99.90
2022-10-17T19:36:36.303Z,99.90
2022-10-17T19:39:58.269Z,99.90
2022-10-17T19:43:20.992Z,99.90
2022-10-17T19:46:47.017Z,99.90
2022-10-17T19:50:09.338Z,99.90
2022-10-17T19:53:31.811Z,99.90
2022-10-17T19:56:53.988Z,99.90
2022-10-17T20:00:16.029Z,99.90
2022-10-17T20:03:38.411Z,99.90
2022-10-17T20:07:00.421Z,99.90
2022-10-17T20:10:22.824Z,99.90
2022-10-17T20:13:45.010Z,99.90
2022-10-17T20:17:07.084Z,99.90
2022-10-17T20:20:29.223Z,99.90
2022-10-17T20:23:51.581Z,99.90
2022-10-17T20:27:14.327Z,99.90
2022-10-17T20:30:37.043Z,99.90
2022-10-17T20:34:00.637Z,99.90
2022-10-17T20:37:23.384Z,99.90
2022-10-17T20:40:45.842Z,99.90
2022-10-17T20:44:08.585Z,99.90
2022-10-17T20:47:46.145Z,99.90
2022-10-17T20:51:11.369Z,99.90
2022-10-17T20:54:44.069Z,99.90
2022-10-17T20:58:12.680Z,99.90
2022-10-17T21:01:36.748Z,99.90
2022-10-17T21:04:59.107Z,99.90
2022-10-17T21:08:21.485Z,99.90
2022-10-17T21:11:44.023Z,99.90
2022-10-17T21:15:06.948Z,99.90
2022-10-17T21:18:29.672Z,99.90
2022-10-17T21:21:52.148Z,99.90
2022-10-17T21:25:14.901Z,99.90
2022-10-17T21:28:38.001Z,99.90
2022-10-17T21:32:00.097Z,99.90
2022-10-17T21:35:25.421Z,99.90
2022-10-17T21:38:49.682Z,99.90
2022-10-17T21:42:11.973Z,99.90
2022-10-17T21:45:40.073Z,99.90
2022-10-17T21:49:20.984Z,99.90
2022-10-17T21:52:43.254Z,99.90
2022-10-17T21:56:11.662Z,99.90
2022-10-17T21:59:35.774Z,99.90
2022-10-17T22:02:57.974Z,99.90
2022-10-17T22:06:39.157Z,99.90
2022-10-17T22:10:02.689Z,99.90
2022-10-17T22:13:25.049Z,99.90
2022-10-17T22:16:48.354Z,99.90
2022-10-17T22:20:10.348Z,99.90
2022-10-17T22:23:32.594Z,99.90
2022-10-17T22:26:54.576Z,99.90
2022-10-17T22:30:16.675Z,99.90
2022-10-17T22:33:39.581Z,99.90
2022-10-17T22:37:01.579Z,99.90
2022-10-17T22:40:23.537Z,99.90
2022-10-17T22:43:45.634Z,99.90
2022-10-17T22:47:07.826Z,99.90
2022-10-17T22:50:29.818Z,99.90
2022-10-17T22:53:51.787Z,99.90
2022-10-17T22:57:13.817Z,99.90
2022-10-17T23:00:35.857Z,99.90
2022-10-17T23:03:57.993Z,99.90
2022-10-17T23:07:20.140Z,99.90
2022-10-17T23:10:42.205Z,99.90
2022-10-17T23:14:04.184Z,99.90
2022-10-17T23:17:26.260Z,99.90
2022-10-17T23:20:48.845Z,99.90
2022-10-17T23:24:10.806Z,99.90
2022-10-17T23:27:35.360Z,99.90
2022-10-17T23:30:57.518Z,99.90
2022-10-17T23:34:19.518Z,99.90
2022-10-17T23:37:41.622Z,99.90
2022-10-17T23:41:04.001Z,99.90
2022-10-17T23:44:26.723Z,99.90
2022-10-17T23:47:48.914Z,99.90
2022-10-17T23:51:11.234Z,99.90
2022-10-17T23:54:33.251Z,99.90
2022-10-17T23:57:55.213Z,99.90
